createdAt,value
2023-01-05T00:02:29.662Z,11.30
2023-01-05T00:05:14.965Z,11.30
2023-01-05T00:08:00.680Z,11.30
2023-01-05T00:11:04.651Z,11.30
2023-01-05T00:14:08.589Z,11.30
2023-01-05T00:17:12.598Z,11.30
2023-01-05T00:20:17.132Z,11.30
2023-01-05T00:23:03.191Z,11.40
2023-01-05T00:25:49.049Z,11.40
2023-01-05T00:28:34.662Z,11.40
2023-01-05T00:31:20.045Z,11.40
2023-01-05T00:34:06.039Z,11.30
2023-01-05T00:36:51.528Z,11.30
2023-01-05T00:39:37.034Z,11.50
2023-01-05T00:42:23.168Z,11.50
2023-01-05T00:45:11.620Z,11.50
2023-01-05T00:47:57.121Z,11.40
2023-01-05T00:50:42.551Z,11.40
2023-01-05T00:53:28.091Z,11.40
2023-01-05T00:56:13.656Z,11.50
2023-01-05T00:58:59.666Z,11.40
2023-01-05T01:01:49.873Z,11.40
2023-01-05T01:04:36.095Z,11.40
2023-01-05T01:07:24.089Z,11.40
2023-01-05T01:10:11.211Z,11.50
2023-01-05T01:12:56.845Z,11.40
2023-01-05T01:15:43.856Z,11.40
2023-01-05T01:18:29.438Z,11.40
2023-01-05T01:21:15.191Z,11.40
2023-01-05T01:24:01.048Z,11.30
2023-01-05T01:26:46.696Z,11.30
2023-01-05T01:29:32.609Z,11.20
2023-01-05T01:32:18.211Z,11.20
2023-01-05T01:35:03.893Z,11.30
2023-01-05T01:37:50.824Z,11.30
2023-01-05T01:40:44.980Z,11.30
2023-01-05T01:43:50.259Z,11.30
2023-01-05T01:46:37.365Z,11.40
2023-01-05T01:49:22.799Z,11.30
2023-01-05T01:52:09.427Z,11.30
2023-01-05T01:54:56.250Z,11.30
2023-01-05T01:57:43.051Z,11.20
2023-01-05T02:00:29.438Z,11.20
2023-01-05T02:03:16.452Z,11.30
2023-01-05T02:06:02.283Z,11.20
2023-01-05T02:08:48.165Z,11.20
2023-01-05T02:12:10.116Z,11.30
2023-01-05T02:15:08.527Z,11.20
2023-01-05T02:18:26.873Z,11.20
2023-01-05T02:21:24.119Z,11.30
2023-01-05T02:24:31.034Z,11.20
2023-01-05T02:27:43.087Z,11.20
2023-01-05T02:30:47.385Z,11.20
2023-01-05T02:33:33.191Z,11.20
2023-01-05T02:36:42.085Z,11.20
2023-01-05T02:39:34.961Z,11.30
2023-01-05T02:42:25.289Z,11.30
2023-01-05T02:45:11.233Z,11.30
2023-01-05T02:47:57.869Z,11.30
2023-01-05T02:50:57.564Z,11.20
2023-01-05T02:53:49.660Z,11.30
2023-01-05T02:56:49.169Z,11.20
2023-01-05T02:59:41.152Z,11.20
2023-01-05T03:02:31.989Z,11.20
2023-01-05T03:05:25.716Z,11.20
2023-01-05T03:08:25.041Z,11.20
2023-01-05T03:11:35.991Z,11.20
2023-01-05T03:14:32.978Z,11.30
2023-01-05T03:17:27.017Z,11.30
2023-01-05T03:20:16.450Z,11.30
2023-01-05T03:23:24.150Z,11.30
2023-01-05T03:26:30.772Z,11.30
2023-01-05T03:29:36.730Z,11.30
2023-01-05T03:32:47.031Z,11.30
2023-01-05T03:35:33.968Z,11.30
2023-01-05T03:38:41.995Z,11.30
2023-01-05T03:41:28.175Z,11.20
2023-01-05T03:44:16.573Z,11.30
2023-01-05T03:47:02.550Z,11.20
2023-01-05T03:49:48.248Z,11.20
2023-01-05T03:52:34.261Z,11.20
2023-01-05T03:55:19.845Z,11.20
2023-01-05T03:58:09.480Z,11.30
2023-01-05T04:00:57.396Z,11.20
2023-01-05T04:03:43.893Z,11.20
2023-01-05T04:06:30.626Z,11.30
2023-01-05T04:09:17.319Z,11.30
2023-01-05T04:12:04.760Z,11.30
2023-01-05T04:14:54.547Z,11.30
2023-01-05T04:17:40.404Z,11.30
2023-01-05T04:20:28.007Z,11.30
2023-01-05T04:23:13.362Z,11.30
2023-01-05T04:25:58.951Z,11.30
2023-01-05T04:28:45.299Z,11.40
2023-01-05T04:31:32.000Z,11.30
2023-01-05T04:34:18.003Z,11.30
2023-01-05T04:37:03.740Z,11.30
2023-01-05T04:39:50.730Z,11.30
2023-01-05T04:42:36.239Z,11.30
2023-01-05T04:45:21.863Z,11.40
2023-01-05T04:48:07.912Z,11.20
2023-01-05T04:50:54.889Z,11.20
2023-01-05T04:53:46.568Z,11.20
2023-01-05T04:56:35.170Z,11.30
2023-01-05T04:59:23.145Z,11.30
2023-01-05T05:02:12.133Z,11.30
2023-01-05T05:05:01.162Z,11.40
2023-01-05T05:07:46.792Z,11.40
2023-01-05T05:10:34.013Z,11.40
2023-01-05T05:13:19.542Z,11.30
2023-01-05T05:16:06.672Z,11.40
2023-01-05T05:18:53.466Z,11.40
2023-01-05T05:21:43.150Z,11.40
2023-01-05T05:24:29.661Z,11.50
2023-01-05T05:27:15.294Z,11.40
2023-01-05T05:30:00.802Z,11.30
2023-01-05T05:32:46.462Z,11.40
2023-01-05T05:35:33.260Z,11.20
2023-01-05T05:38:18.938Z,11.30
2023-01-05T05:41:04.775Z,11.40
2023-01-05T05:43:50.434Z,11.40
2023-01-05T05:46:36.152Z,11.40
2023-01-05T05:49:21.734Z,11.40
2023-01-05T05:52:06.967Z,11.40
2023-01-05T05:54:52.507Z,11.30
2023-01-05T05:57:38.041Z,11.40
2023-01-05T06:00:23.663Z,11.40
2023-01-05T06:03:09.415Z,11.50
2023-01-05T06:05:54.906Z,11.50
2023-01-05T06:08:40.912Z,11.50
2023-01-05T06:11:26.664Z,11.50
2023-01-05T06:14:12.064Z,11.50
2023-01-05T06:16:57.665Z,11.60
2023-01-05T06:19:43.315Z,11.60
2023-01-05T06:22:28.836Z,11.70
2023-01-05T06:25:14.396Z,11.70
2023-01-05T06:28:00.420Z,11.70
2023-01-05T06:30:46.011Z,11.60
2023-01-05T06:33:31.578Z,11.60
2023-01-05T06:36:17.051Z,11.60
2023-01-05T06:39:02.858Z,11.70
2023-01-05T06:41:48.294Z,11.70
2023-01-05T06:44:34.046Z,11.70
2023-01-05T06:47:19.801Z,11.70
2023-01-05T06:50:06.193Z,11.70
2023-01-05T06:52:51.807Z,11.60
2023-01-05T06:55:37.352Z,11.50
2023-01-05T06:58:22.915Z,11.60
2023-01-05T07:01:08.606Z,11.60
2023-01-05T07:03:54.566Z,11.50
2023-01-05T07:06:40.100Z,11.50
2023-01-05T07:09:25.508Z,11.50
2023-01-05T07:12:11.288Z,11.60
2023-01-05T07:14:57.932Z,11.70
2023-01-05T07:17:43.799Z,11.70
2023-01-05T07:20:29.359Z,11.80
2023-01-05T07:23:15.055Z,11.80
2023-01-05T07:26:01.622Z,11.70
2023-01-05T07:28:47.685Z,11.80
2023-01-05T07:31:33.360Z,11.70
2023-01-05T07:34:20.184Z,11.70
2023-01-05T07:37:05.805Z,11.70
2023-01-05T07:39:51.370Z,11.30
2023-01-05T07:42:36.964Z,11.80
2023-01-05T07:45:23.177Z,11.90
2023-01-05T07:48:08.529Z,11.70
2023-01-05T07:51:05.750Z,11.60
2023-01-05T07:53:51.680Z,11.50
2023-01-05T07:56:37.144Z,11.60
2023-01-05T07:59:23.476Z,11.60
2023-01-05T08:02:10.873Z,11.70
2023-01-05T08:04:56.422Z,11.70
2023-01-05T08:07:42.173Z,11.70
2023-01-05T08:10:30.556Z,11.70
2023-01-05T08:13:34.825Z,11.80
2023-01-05T08:16:21.005Z,11.90
2023-01-05T08:19:10.893Z,12.00
2023-01-05T08:21:57.220Z,12.00
2023-01-05T08:24:43.045Z,12.00
2023-01-05T08:27:29.595Z,12.00
2023-01-05T08:30:15.839Z,11.90
2023-01-05T08:33:01.438Z,12.00
2023-01-05T08:35:47.443Z,12.00
2023-01-05T08:38:32.865Z,12.00
2023-01-05T08:41:31.193Z,12.00
2023-01-05T08:44:17.147Z,12.00
2023-01-05T08:47:02.865Z,11.90
2023-01-05T08:49:49.807Z,11.90
2023-01-05T08:52:37.079Z,11.90
2023-01-05T08:55:22.715Z,11.90
2023-01-05T08:58:08.328Z,11.90
2023-01-05T09:00:53.835Z,12.00
2023-01-05T09:03:39.593Z,12.10
2023-01-05T09:06:25.275Z,12.20
2023-01-05T09:09:11.908Z,12.30
2023-01-05T09:11:57.482Z,12.40
2023-01-05T09:14:43.021Z,12.40
2023-01-05T09:17:28.613Z,12.40
2023-01-05T09:20:14.636Z,12.30
2023-01-05T09:23:00.030Z,12.30
2023-01-05T09:25:45.597Z,12.40
2023-01-05T09:28:31.400Z,12.50
2023-01-05T09:31:20.275Z,12.50
2023-01-05T09:34:06.028Z,12.70
2023-01-05T09:36:51.545Z,12.90
2023-01-05T09:39:37.173Z,13.00
2023-01-05T09:42:26.664Z,13.20
2023-01-05T09:45:16.008Z,13.50
2023-01-05T09:48:01.637Z,13.80
2023-01-05T09:50:50.584Z,13.90
2023-01-05T09:53:38.590Z,14.00
2023-01-05T09:59:55.021Z,14.40
2023-01-05T10:02:50.413Z,14.40
2023-01-05T10:05:41.077Z,14.40
2023-01-05T10:08:37.791Z,14.30
2023-01-05T10:12:14.545Z,14.20
2023-01-05T10:15:16.511Z,14.10
2023-01-05T10:18:13.318Z,14.10
2023-01-05T10:21:20.413Z,14.30
2023-01-05T10:24:24.702Z,14.50
2023-01-05T10:28:01.045Z,14.80
2023-01-05T10:31:25.194Z,14.90
2023-01-05T10:34:22.621Z,15.10
2023-01-05T10:37:32.146Z,15.10
2023-01-05T10:40:54.673Z,15.20
2023-01-05T10:43:53.744Z,15.00
2023-01-05T10:46:52.151Z,14.60
2023-01-05T10:49:42.363Z,14.70
2023-01-05T10:52:28.047Z,14.40
2023-01-05T10:55:17.787Z,14.10
2023-01-05T10:58:03.327Z,14.20
2023-01-05T11:00:49.750Z,14.30
2023-01-05T11:04:23.000Z,14.30
2023-01-05T11:06:43.928Z,14.30
2023-01-05T11:09:30.080Z,14.20
2023-01-05T11:12:21.708Z,14.20
2023-01-05T11:15:15.518Z,14.20
2023-01-05T11:18:01.971Z,14.30
2023-01-05T11:21:11.759Z,14.30
2023-01-05T11:23:59.491Z,14.20
2023-01-05T11:26:50.343Z,14.10
2023-01-05T11:29:35.995Z,14.30
2023-01-05T11:32:21.420Z,14.20
2023-01-05T11:35:36.587Z,14.30
2023-01-05T11:38:28.232Z,14.10
2023-01-05T11:41:14.406Z,14.10
2023-01-05T11:44:03.270Z,14.20
2023-01-05T11:46:49.620Z,14.30
2023-01-05T11:49:36.182Z,14.10
2023-01-05T11:52:35.731Z,14.20
2023-01-05T11:55:24.342Z,14.00
2023-01-05T11:58:12.728Z,14.20
2023-01-05T12:01:04.280Z,14.20
2023-01-05T12:03:58.545Z,14.40
2023-01-05T12:07:28.827Z,14.20
2023-01-05T12:10:35.151Z,14.10
2023-01-05T12:13:49.071Z,14.10
2023-01-05T12:17:10.225Z,13.90
2023-01-05T12:20:30.464Z,13.80
2023-01-05T12:23:27.740Z,15.10
2023-01-05T12:26:22.688Z,18.50
2023-01-05T12:36:18.658Z,20.80
2023-01-05T12:39:15.635Z,22.90
2023-01-05T12:42:20.304Z,24.00
2023-01-05T12:45:39.999Z,24.40
2023-01-05T12:48:28.870Z,22.80
2023-01-05T12:51:40.133Z,21.30
2023-01-05T12:54:47.802Z,20.50
2023-01-05T12:57:41.865Z,19.70
2023-01-05T13:00:33.845Z,19.00
2023-01-05T13:03:22.019Z,19.30
2023-01-05T13:06:18.074Z,18.10
2023-01-05T13:09:13.692Z,19.20
2023-01-05T13:12:06.552Z,19.00
2023-01-05T13:15:27.609Z,18.20
2023-01-05T13:18:17.585Z,17.40
2023-01-05T13:21:09.481Z,17.20
2023-01-05T13:24:08.815Z,17.00
2023-01-05T13:26:57.166Z,16.40
2023-01-05T13:29:48.933Z,15.90
2023-01-05T13:32:55.935Z,15.40
2023-01-05T13:35:54.018Z,15.10
2023-01-05T13:38:57.984Z,14.90
2023-01-05T13:42:26.581Z,14.80
2023-01-05T13:45:55.591Z,14.90
2023-01-05T13:49:03.795Z,15.00
2023-01-05T13:52:31.782Z,14.90
2023-01-05T13:55:25.758Z,14.70
2023-01-05T13:58:38.685Z,14.80
2023-01-05T14:01:42.340Z,14.60
2023-01-05T14:04:35.445Z,14.50
2023-01-05T14:07:21.949Z,14.60
2023-01-05T14:10:22.493Z,14.70
2023-01-05T14:13:46.700Z,14.50
2023-01-05T14:16:35.762Z,14.30
2023-01-05T14:19:21.195Z,14.10
2023-01-05T14:22:32.682Z,14.10
2023-01-05T14:25:40.259Z,14.10
2023-01-05T14:28:29.306Z,14.10
2023-01-05T14:31:14.935Z,14.10
2023-01-05T14:34:04.161Z,14.00
2023-01-05T14:36:58.560Z,14.00
2023-01-05T14:39:45.789Z,14.10
2023-01-05T14:42:36.075Z,14.00
2023-01-05T14:45:33.417Z,14.00
2023-01-05T14:48:33.446Z,14.00
2023-01-05T14:51:26.467Z,14.00
2023-01-05T14:54:12.032Z,14.10
2023-01-05T14:57:25.678Z,14.20
2023-01-05T15:00:11.544Z,13.90
2023-01-05T15:06:26.360Z,13.70
2023-01-05T15:09:41.358Z,13.60
2023-01-05T15:12:52.329Z,13.60
2023-01-05T15:15:55.461Z,13.50
2023-01-05T15:19:21.648Z,13.40
2023-01-05T15:22:39.169Z,13.30
2023-01-05T15:25:46.070Z,13.30
2023-01-05T15:31:53.361Z,13.40
2023-01-05T15:35:10.942Z,13.50
2023-01-05T15:37:56.560Z,13.50
2023-01-05T15:40:42.432Z,13.50
2023-01-05T15:43:28.562Z,13.60
2023-01-05T15:46:22.631Z,13.70
2023-01-05T15:49:20.300Z,13.60
2023-01-05T15:52:16.017Z,13.60
2023-01-05T15:55:21.982Z,13.70
2023-01-05T15:58:15.925Z,13.60
2023-01-05T16:01:05.674Z,13.60
2023-01-05T16:03:51.173Z,13.60
2023-01-05T16:06:39.647Z,13.70
2023-01-05T16:09:38.714Z,13.60
2023-01-05T16:12:25.008Z,13.50
2023-01-05T16:15:15.816Z,13.40
2023-01-05T16:18:03.550Z,13.50
2023-01-05T16:20:52.336Z,13.50
2023-01-05T16:23:43.313Z,13.50
2023-01-05T16:26:29.613Z,13.60
2023-01-05T16:29:39.833Z,13.50
2023-01-05T16:32:33.540Z,13.40
2023-01-05T16:35:42.591Z,13.40
2023-01-05T16:38:30.342Z,13.30
2023-01-05T16:41:23.446Z,13.40
2023-01-05T16:44:13.490Z,13.30
2023-01-05T16:47:09.514Z,13.30
2023-01-05T16:49:58.315Z,13.30
2023-01-05T16:52:55.456Z,13.40
2023-01-05T16:55:41.591Z,13.30
2023-01-05T16:58:30.496Z,13.30
2023-01-05T17:01:27.023Z,13.30
2023-01-05T17:04:16.940Z,13.30
2023-01-05T17:07:02.413Z,13.40
2023-01-05T17:09:48.091Z,13.40
2023-01-05T17:12:34.040Z,13.40
2023-01-05T17:15:24.272Z,13.40
2023-01-05T17:18:15.946Z,13.30
2023-01-05T17:21:04.978Z,13.30
2023-01-05T17:23:56.713Z,13.30
2023-01-05T17:26:45.395Z,13.30
2023-01-05T17:29:33.013Z,13.30
2023-01-05T17:32:18.668Z,13.30
2023-01-05T17:35:07.637Z,13.30
2023-01-05T17:37:53.339Z,13.20
2023-01-05T17:40:40.181Z,13.20
2023-01-05T17:43:26.510Z,13.10
2023-01-05T17:46:21.001Z,13.10
2023-01-05T17:49:15.798Z,13.20
2023-01-05T17:52:01.508Z,13.20
2023-01-05T17:54:47.418Z,13.20
2023-01-05T17:57:32.798Z,13.10
2023-01-05T18:00:22.019Z,13.10
2023-01-05T18:03:10.280Z,13.00
2023-01-05T18:05:55.944Z,13.00
2023-01-05T18:11:28.198Z,13.10
2023-01-05T18:14:13.653Z,13.10
2023-01-05T18:16:59.509Z,13.10
2023-01-05T18:19:45.482Z,13.10
2023-01-05T18:25:21.911Z,13.10
2023-01-05T18:28:07.529Z,13.10
2023-01-05T18:33:44.663Z,13.10
2023-01-05T18:36:30.213Z,13.00
2023-01-05T18:39:15.767Z,13.00
2023-01-05T18:42:01.736Z,12.90
2023-01-05T18:44:47.585Z,12.90
2023-01-05T18:47:32.960Z,12.90
2023-01-05T18:50:18.706Z,13.00
2023-01-05T18:53:04.543Z,13.00
2023-01-05T18:55:50.534Z,13.10
2023-01-05T18:58:36.692Z,13.10
2023-01-05T19:01:24.147Z,13.10
2023-01-05T19:04:15.769Z,13.20
2023-01-05T19:07:01.492Z,13.20
2023-01-05T19:09:47.009Z,13.20
2023-01-05T19:12:32.755Z,13.20
2023-01-05T19:15:18.277Z,13.30
2023-01-05T19:18:04.255Z,13.40
2023-01-05T19:20:56.931Z,13.40
2023-01-05T19:23:42.562Z,13.40
2023-01-05T19:26:31.588Z,13.30
2023-01-05T19:29:18.810Z,13.40
2023-01-05T19:32:04.925Z,13.30
2023-01-05T19:34:50.752Z,13.30
2023-01-05T19:37:38.367Z,13.30
2023-01-05T19:40:24.588Z,13.40
2023-01-05T19:43:10.453Z,13.40
2023-01-05T19:46:05.664Z,13.40
2023-01-05T19:48:53.062Z,13.40
2023-01-05T19:51:38.883Z,13.30
2023-01-05T19:54:26.169Z,13.30
2023-01-05T19:57:11.927Z,13.30
2023-01-05T19:59:58.554Z,13.30
2023-01-05T20:02:44.402Z,13.30
2023-01-05T20:05:29.990Z,13.30
2023-01-05T20:08:15.660Z,13.30
2023-01-05T20:11:09.363Z,13.30
2023-01-05T20:13:55.142Z,13.30
2023-01-05T20:16:42.090Z,13.30
2023-01-05T20:19:29.319Z,13.20
2023-01-05T20:22:15.141Z,13.20
2023-01-05T20:25:00.827Z,13.20
2023-01-05T20:27:46.475Z,13.20
2023-01-05T20:30:34.453Z,13.20
2023-01-05T20:33:20.087Z,13.10
2023-01-05T20:36:05.809Z,13.10
2023-01-05T20:38:52.160Z,13.00
2023-01-05T20:41:40.505Z,13.00
2023-01-05T20:44:26.715Z,13.00
2023-01-05T20:47:13.530Z,13.10
2023-01-05T20:49:59.011Z,13.10
2023-01-05T20:52:44.573Z,13.10
2023-01-05T20:55:30.503Z,13.10
2023-01-05T20:58:15.943Z,13.10
2023-01-05T21:01:10.724Z,13.00
2023-01-05T21:03:57.836Z,13.00
2023-01-05T21:06:44.158Z,13.00
2023-01-05T21:09:30.816Z,13.00
2023-01-05T21:12:16.597Z,12.90
2023-01-05T21:15:02.441Z,12.90
2023-01-05T21:17:48.864Z,12.90
2023-01-05T21:20:34.590Z,12.70
2023-01-05T21:23:20.539Z,12.70
2023-01-05T21:26:12.829Z,12.70
2023-01-05T21:28:59.427Z,12.60
2023-01-05T21:31:45.050Z,12.60
2023-01-05T21:34:30.403Z,12.50
2023-01-05T21:37:16.386Z,12.40
2023-01-05T21:40:02.412Z,12.30
2023-01-05T21:42:50.220Z,12.30
2023-01-05T21:45:35.740Z,12.30
2023-01-05T21:48:21.472Z,12.30
2023-01-05T21:51:25.602Z,12.20
2023-01-05T21:54:30.156Z,12.20
2023-01-05T21:57:16.347Z,12.20
2023-01-05T22:00:02.036Z,12.20
2023-01-05T22:02:50.591Z,12.20
2023-01-05T22:05:36.200Z,12.10
2023-01-05T22:08:23.844Z,12.10
2023-01-05T22:11:09.787Z,12.10
2023-01-05T22:13:55.814Z,12.10
2023-01-05T22:16:41.358Z,12.10
2023-01-05T22:19:26.915Z,12.10
2023-01-05T22:22:12.464Z,12.20
2023-01-05T22:24:57.931Z,12.20
2023-01-05T22:27:43.577Z,12.20
2023-01-05T22:30:29.418Z,12.30
2023-01-05T22:33:15.002Z,12.30
2023-01-05T22:36:01.121Z,12.30
2023-01-05T22:38:48.896Z,12.30
2023-01-05T22:41:34.715Z,12.20
2023-01-05T22:44:20.169Z,12.30
2023-01-05T22:47:06.136Z,12.20
2023-01-05T22:49:51.571Z,12.20
2023-01-05T22:52:37.225Z,12.20
2023-01-05T22:55:22.809Z,12.10
2023-01-05T22:58:08.559Z,12.10
2023-01-05T23:00:54.574Z,12.10
2023-01-05T23:03:41.478Z,12.10
2023-01-05T23:06:27.929Z,12.00
2023-01-05T23:09:16.266Z,12.00
2023-01-05T23:12:02.086Z,12.00
2023-01-05T23:14:47.734Z,12.00
2023-01-05T23:17:33.438Z,11.90
2023-01-05T23:20:18.981Z,11.90
2023-01-05T23:23:04.330Z,11.90
2023-01-05T23:25:51.321Z,11.80
2023-01-05T23:28:37.987Z,11.70
2023-01-05T23:31:24.147Z,11.70
2023-01-05T23:34:09.911Z,11.50
2023-01-05T23:36:55.440Z,11.50
2023-01-05T23:39:41.021Z,11.40
2023-01-05T23:42:46.186Z,11.40
2023-01-05T23:45:32.077Z,11.30
2023-01-05T23:48:18.446Z,11.30
2023-01-05T23:51:06.271Z,11.30
2023-01-05T23:53:53.368Z,11.20
2023-01-05T23:56:38.997Z,11.10
2023-01-05T23:59:24.707Z,11.00
